createdAt,value
2023-03-13T00:01:30.665Z,8.26
2023-03-13T00:03:57.400Z,8.28
2023-03-13T00:06:26.564Z,8.28
2023-03-13T00:08:54.484Z,8.29
2023-03-13T00:11:21.010Z,8.27
2023-03-13T00:13:47.453Z,8.29
2023-03-13T00:16:16.594Z,8.30
2023-03-13T00:18:48.045Z,8.32
2023-03-13T00:21:15.096Z,8.34
2023-03-13T00:23:41.584Z,8.36
2023-03-13T00:26:11.225Z,8.36
2023-03-13T00:28:39.689Z,8.38
2023-03-13T00:31:26.876Z,8.40
2023-03-13T00:33:58.652Z,8.41
2023-03-13T00:36:28.791Z,8.42
2023-03-13T00:38:56.344Z,8.43
2023-03-13T00:41:25.364Z,8.44
2023-03-13T00:43:53.429Z,8.45
2023-03-13T00:46:23.059Z,8.47
2023-03-13T00:48:50.045Z,8.48
2023-03-13T00:51:18.294Z,8.48
2023-03-13T00:53:46.107Z,8.51
2023-03-13T00:56:15.127Z,8.50
2023-03-13T00:58:43.462Z,8.51
2023-03-13T01:01:17.032Z,8.49
2023-03-13T01:03:46.819Z,8.50
2023-03-13T01:06:16.632Z,8.50
2023-03-13T01:08:43.433Z,8.49
2023-03-13T01:11:13.885Z,8.49
2023-03-13T01:13:40.929Z,8.44
2023-03-13T01:16:11.700Z,8.42
2023-03-13T01:18:40.335Z,8.40
2023-03-13T01:21:07.489Z,8.39
2023-03-13T01:23:34.287Z,8.39
2023-03-13T01:26:00.769Z,8.40
2023-03-13T01:28:27.638Z,8.41
2023-03-13T01:30:54.719Z,8.41
2023-03-13T01:33:21.364Z,8.42
2023-03-13T01:35:47.936Z,8.42
2023-03-13T01:38:14.961Z,8.44
2023-03-13T01:40:49.093Z,8.45
2023-03-13T01:43:27.734Z,8.48
2023-03-13T01:46:16.198Z,8.50
2023-03-13T01:49:13.163Z,8.51
2023-03-13T01:52:19.169Z,8.54
2023-03-13T01:55:08.415Z,8.56
2023-03-13T01:57:42.810Z,8.58
2023-03-13T02:00:11.965Z,8.61
2023-03-13T02:02:45.459Z,8.63
2023-03-13T02:05:15.198Z,8.65
2023-03-13T02:07:45.786Z,8.65
2023-03-13T02:10:14.687Z,8.68
2023-03-13T02:12:42.142Z,8.69
2023-03-13T02:15:13.957Z,8.71
2023-03-13T02:17:41.374Z,8.72
2023-03-13T02:20:08.951Z,8.75
2023-03-13T02:23:14.097Z,8.76
2023-03-13T02:25:47.614Z,8.78
2023-03-13T02:28:35.632Z,8.79
2023-03-13T02:31:06.680Z,8.79
2023-03-13T02:33:39.805Z,8.80
2023-03-13T02:36:08.142Z,8.79
2023-03-13T02:38:42.536Z,8.80
2023-03-13T02:41:09.919Z,8.81
2023-03-13T02:43:38.244Z,8.80
2023-03-13T02:46:07.450Z,8.80
2023-03-13T02:48:57.023Z,8.81
2023-03-13T02:51:41.678Z,8.81
2023-03-13T02:54:14.247Z,8.80
2023-03-13T02:56:44.194Z,8.80
2023-03-13T02:59:11.888Z,8.81
2023-03-13T03:01:42.077Z,8.81
2023-03-13T03:04:08.812Z,8.80
2023-03-13T03:06:35.600Z,8.79
2023-03-13T03:09:04.043Z,8.78
2023-03-13T03:11:33.822Z,8.76
2023-03-13T03:14:05.615Z,8.75
2023-03-13T03:16:37.593Z,8.73
2023-03-13T03:19:06.472Z,8.72
2023-03-13T03:21:33.744Z,8.71
2023-03-13T03:24:00.241Z,8.70
2023-03-13T03:26:27.109Z,8.70
2023-03-13T03:28:53.904Z,8.70
2023-03-13T03:31:20.604Z,8.70
2023-03-13T03:33:47.599Z,8.71
2023-03-13T03:36:19.134Z,8.71
2023-03-13T03:38:46.358Z,8.73
2023-03-13T03:41:16.440Z,8.74
2023-03-13T03:43:43.528Z,8.75
2023-03-13T03:46:12.230Z,8.76
2023-03-13T03:48:38.901Z,8.78
2023-03-13T03:51:07.788Z,8.78
2023-03-13T03:53:38.062Z,8.76
2023-03-13T03:56:04.803Z,8.76
2023-03-13T03:58:31.419Z,8.77
2023-03-13T04:01:05.741Z,8.77
2023-03-13T04:03:32.676Z,8.79
2023-03-13T04:05:59.512Z,8.79
2023-03-13T04:08:26.270Z,8.77
2023-03-13T04:10:53.133Z,8.77
2023-03-13T04:13:22.367Z,8.77
2023-03-13T04:15:49.568Z,8.79
2023-03-13T04:18:17.106Z,8.79
2023-03-13T04:20:44.260Z,8.79
2023-03-13T04:23:11.065Z,8.79
2023-03-13T04:25:38.191Z,8.79
2023-03-13T04:28:08.893Z,8.79
2023-03-13T04:30:41.093Z,8.81
2023-03-13T04:33:19.311Z,8.82
2023-03-13T04:36:00.723Z,8.81
2023-03-13T04:38:45.592Z,8.82
2023-03-13T04:41:51.187Z,8.82
2023-03-13T04:44:31.505Z,8.82
2023-03-13T04:47:07.971Z,8.83
2023-03-13T04:49:46.106Z,8.83
2023-03-13T04:52:31.219Z,8.85
2023-03-13T04:55:11.806Z,8.86
2023-03-13T04:57:45.091Z,8.87
2023-03-13T05:00:24.341Z,8.89
2023-03-13T05:03:09.756Z,8.90
2023-03-13T05:05:50.293Z,8.92
2023-03-13T05:08:51.885Z,8.93
2023-03-13T05:11:53.668Z,8.94
2023-03-13T05:14:46.332Z,8.96
2023-03-13T05:17:24.824Z,8.97
2023-03-13T05:20:11.465Z,9.00
2023-03-13T05:23:00.828Z,8.99
2023-03-13T05:25:48.817Z,8.99
2023-03-13T05:28:31.907Z,9.00
2023-03-13T05:31:16.986Z,9.00
2023-03-13T05:33:57.724Z,9.00
2023-03-13T05:36:40.523Z,9.00
2023-03-13T05:39:26.587Z,9.01
2023-03-13T05:42:18.615Z,9.01
2023-03-13T05:44:59.301Z,9.03
2023-03-13T05:47:54.405Z,9.06
2023-03-13T05:50:33.923Z,9.09
2023-03-13T05:53:26.612Z,9.11
2023-03-13T05:56:15.777Z,9.13
2023-03-13T05:59:01.667Z,9.15
2023-03-13T06:01:28.463Z,9.17
2023-03-13T06:04:09.932Z,9.18
2023-03-13T06:06:38.485Z,9.19
2023-03-13T06:09:05.962Z,9.22
2023-03-13T06:11:33.930Z,9.25
2023-03-13T06:14:00.605Z,9.26
2023-03-13T06:16:35.728Z,9.27
2023-03-13T06:19:15.234Z,9.29
2023-03-13T06:21:42.172Z,9.31
2023-03-13T06:24:09.050Z,9.34
2023-03-13T06:26:35.513Z,9.34
2023-03-13T06:29:01.959Z,9.39
2023-03-13T06:31:28.427Z,9.40
2023-03-13T06:33:55.696Z,9.45
2023-03-13T06:36:24.277Z,9.49
2023-03-13T06:38:51.134Z,9.79
2023-03-13T06:41:17.902Z,10.43
2023-03-13T06:43:44.733Z,10.89
2023-03-13T06:46:22.792Z,11.19
2023-03-13T06:48:50.185Z,11.28
2023-03-13T06:51:19.435Z,11.22
2023-03-13T06:53:46.466Z,11.11
2023-03-13T06:56:13.267Z,11.04
2023-03-13T06:58:40.178Z,10.96
2023-03-13T07:01:08.099Z,10.89
2023-03-13T07:03:35.370Z,10.81
2023-03-13T07:06:02.096Z,10.76
2023-03-13T07:08:28.826Z,10.71
2023-03-13T07:10:59.893Z,10.68
2023-03-13T07:13:26.812Z,10.65
2023-03-13T07:15:53.847Z,10.64
2023-03-13T07:18:21.253Z,10.63
2023-03-13T07:20:59.155Z,10.62
2023-03-13T07:23:27.470Z,10.62
2023-03-13T07:26:03.065Z,10.61
2023-03-13T07:28:35.570Z,10.61
2023-03-13T07:31:26.567Z,10.60
2023-03-13T07:33:56.600Z,10.58
2023-03-13T07:36:23.761Z,10.58
2023-03-13T07:38:51.442Z,10.57
2023-03-13T07:41:18.898Z,10.60
2023-03-13T07:43:46.598Z,10.62
2023-03-13T07:46:18.484Z,10.67
2023-03-13T07:48:45.703Z,10.71
2023-03-13T07:51:15.233Z,10.75
2023-03-13T07:53:41.965Z,10.79
2023-03-13T07:56:12.148Z,10.85
2023-03-13T07:58:40.532Z,10.89
2023-03-13T08:01:31.040Z,10.97
2023-03-13T08:04:01.216Z,11.03
2023-03-13T08:06:32.761Z,11.05
2023-03-13T08:09:00.485Z,11.07
2023-03-13T08:11:28.595Z,11.07
2023-03-13T08:13:56.729Z,11.11
2023-03-13T08:16:26.383Z,11.12
2023-03-13T08:18:56.065Z,11.13
2023-03-13T08:21:29.021Z,11.17
2023-03-13T08:23:58.104Z,11.20
2023-03-13T08:26:27.567Z,11.27
2023-03-13T08:28:57.014Z,11.35
2023-03-13T08:31:28.676Z,11.36
2023-03-13T08:33:55.161Z,11.42
2023-03-13T08:36:24.914Z,11.52
2023-03-13T08:38:53.308Z,11.50
2023-03-13T08:41:22.121Z,11.52
2023-03-13T08:43:49.079Z,11.49
2023-03-13T08:46:17.786Z,11.45
2023-03-13T08:48:45.032Z,11.48
2023-03-13T08:51:14.078Z,11.50
2023-03-13T08:53:42.330Z,11.48
2023-03-13T08:56:10.456Z,11.48
2023-03-13T08:58:37.190Z,11.53
2023-03-13T09:01:06.157Z,11.66
2023-03-13T09:03:33.360Z,11.78
2023-03-13T09:06:00.875Z,11.75
2023-03-13T09:08:28.501Z,11.72
2023-03-13T09:10:59.168Z,11.74
2023-03-13T09:13:27.052Z,11.73
2023-03-13T09:16:05.610Z,11.76
2023-03-13T09:18:32.525Z,11.88
2023-03-13T09:20:59.185Z,11.99
2023-03-13T09:23:26.348Z,12.08
2023-03-13T09:25:54.133Z,12.11
2023-03-13T09:28:21.118Z,12.16
2023-03-13T09:30:49.926Z,12.28
2023-03-13T09:33:20.914Z,12.34
2023-03-13T09:35:51.145Z,12.43
2023-03-13T09:38:19.391Z,12.59
2023-03-13T09:41:05.244Z,12.72
2023-03-13T09:43:50.303Z,12.92
2023-03-13T09:46:23.227Z,13.12
2023-03-13T09:48:55.972Z,13.20
2023-03-13T09:51:29.744Z,13.29
2023-03-13T09:54:11.471Z,13.30
2023-03-13T09:56:45.057Z,13.60
2023-03-13T09:59:27.845Z,13.95
2023-03-13T10:01:58.096Z,14.07
2023-03-13T10:04:35.500Z,14.24
2023-03-13T10:07:03.803Z,14.44
2023-03-13T10:09:32.734Z,14.69
2023-03-13T10:12:18.945Z,14.75
2023-03-13T10:14:51.437Z,14.65
2023-03-13T10:17:32.239Z,14.57
2023-03-13T10:20:09.509Z,14.49
2023-03-13T10:22:37.908Z,14.44
2023-03-13T10:25:12.051Z,14.35
2023-03-13T10:27:50.804Z,14.37
2023-03-13T10:30:26.591Z,14.44
2023-03-13T10:32:57.492Z,14.41
2023-03-13T10:35:26.033Z,14.34
2023-03-13T10:38:02.208Z,14.33
2023-03-13T10:40:28.942Z,14.37
2023-03-13T10:43:04.885Z,14.36
2023-03-13T10:45:35.499Z,14.36
2023-03-13T10:48:14.750Z,14.28
2023-03-13T10:50:50.172Z,14.19
2023-03-13T10:53:28.875Z,14.16
2023-03-13T10:56:10.532Z,14.15
2023-03-13T10:58:42.932Z,14.17
2023-03-13T11:01:26.000Z,14.19
2023-03-13T11:03:55.086Z,14.25
2023-03-13T11:06:31.023Z,14.26
2023-03-13T11:09:19.466Z,14.29
2023-03-13T11:11:52.908Z,14.29
2023-03-13T11:14:21.952Z,14.29
2023-03-13T11:16:50.894Z,14.32
2023-03-13T11:19:44.197Z,14.49
2023-03-13T11:22:14.367Z,14.68
2023-03-13T11:25:08.619Z,14.96
2023-03-13T11:27:48.492Z,15.26
2023-03-13T11:30:36.806Z,15.49
2023-03-13T11:33:20.040Z,15.62
2023-03-13T11:35:55.208Z,15.50
2023-03-13T11:38:35.164Z,15.65
2023-03-13T11:41:25.913Z,15.80
2023-03-13T11:44:04.835Z,15.99
2023-03-13T11:47:02.032Z,16.03
2023-03-13T11:49:34.714Z,16.09
2023-03-13T11:52:24.313Z,16.11
2023-03-13T11:55:13.947Z,16.24
2023-03-13T11:58:06.376Z,16.44
2023-03-13T12:00:57.249Z,16.60
2023-03-13T12:03:42.564Z,16.73
2023-03-13T12:06:27.886Z,16.76
2023-03-13T12:09:02.190Z,16.78
2023-03-13T12:11:43.527Z,16.90
2023-03-13T12:14:18.781Z,17.05
2023-03-13T12:16:55.263Z,17.11
2023-03-13T12:19:54.780Z,17.26
2023-03-13T12:22:39.944Z,17.19
2023-03-13T12:25:14.862Z,17.18
2023-03-13T12:27:47.283Z,17.31
2023-03-13T12:30:51.425Z,17.32
2023-03-13T12:33:35.173Z,17.35
2023-03-13T12:36:11.000Z,17.45
2023-03-13T12:39:01.534Z,17.56
2023-03-13T12:42:10.424Z,17.65
2023-03-13T12:44:37.055Z,17.63
2023-03-13T12:47:31.562Z,17.63
2023-03-13T12:50:05.612Z,17.65
2023-03-13T12:52:49.650Z,17.85
2023-03-13T12:55:40.554Z,17.93
2023-03-13T12:58:10.893Z,17.93
2023-03-13T13:00:40.567Z,17.85
2023-03-13T13:03:16.289Z,17.82
2023-03-13T13:06:07.108Z,17.82
2023-03-13T13:09:07.662Z,17.84
2023-03-13T13:11:34.245Z,17.73
2023-03-13T13:14:02.306Z,17.69
2023-03-13T13:16:30.176Z,17.44
2023-03-13T13:19:32.308Z,17.26
2023-03-13T13:22:38.978Z,17.15
2023-03-13T13:25:11.743Z,17.11
2023-03-13T13:27:38.141Z,17.17
2023-03-13T13:30:30.262Z,17.18
2023-03-13T13:33:20.212Z,17.32
2023-03-13T13:36:07.408Z,17.52
2023-03-13T13:38:40.198Z,17.59
2023-03-13T13:41:09.760Z,17.69
2023-03-13T13:43:41.383Z,17.87
2023-03-13T13:46:33.169Z,17.82
2023-03-13T13:49:05.679Z,17.87
2023-03-13T13:51:33.583Z,17.78
2023-03-13T13:54:24.459Z,17.86
2023-03-13T13:57:18.156Z,17.75
2023-03-13T13:59:49.386Z,17.65
2023-03-13T14:02:32.211Z,17.67
2023-03-13T14:05:18.616Z,17.86
2023-03-13T14:07:52.344Z,17.90
2023-03-13T14:10:37.299Z,18.00
2023-03-13T14:13:12.343Z,18.06
2023-03-13T14:15:45.382Z,18.05
2023-03-13T14:18:21.825Z,17.89
2023-03-13T14:21:25.274Z,17.85
2023-03-13T14:23:52.676Z,17.78
2023-03-13T14:26:27.825Z,17.76
2023-03-13T14:28:58.004Z,17.77
2023-03-13T14:31:29.942Z,17.90
2023-03-13T14:33:58.571Z,17.99
2023-03-13T14:36:26.592Z,18.07
2023-03-13T14:39:01.240Z,18.18
2023-03-13T14:41:37.422Z,18.13
2023-03-13T14:44:17.563Z,18.22
2023-03-13T14:46:45.068Z,18.29
2023-03-13T14:49:20.936Z,18.30
2023-03-13T14:52:00.683Z,18.28
2023-03-13T14:54:35.698Z,18.20
2023-03-13T14:57:05.199Z,18.29
2023-03-13T14:59:32.289Z,18.22
2023-03-13T15:02:15.410Z,18.07
2023-03-13T15:05:28.058Z,17.99
2023-03-13T15:07:55.084Z,17.85
2023-03-13T15:10:23.378Z,17.74
2023-03-13T15:12:50.349Z,17.58
2023-03-13T15:15:17.407Z,17.43
2023-03-13T15:17:44.221Z,17.41
2023-03-13T15:20:13.436Z,17.60
2023-03-13T15:22:42.580Z,17.77
2023-03-13T15:25:20.822Z,17.87
2023-03-13T15:27:48.801Z,17.78
2023-03-13T15:30:19.247Z,17.64
2023-03-13T15:32:47.059Z,17.47
2023-03-13T15:35:31.299Z,17.36
2023-03-13T15:38:01.967Z,17.32
2023-03-13T15:40:30.892Z,17.28
2023-03-13T15:42:57.385Z,17.22
2023-03-13T15:45:23.995Z,17.13
2023-03-13T15:47:50.525Z,16.99
2023-03-13T15:50:19.640Z,16.87
2023-03-13T15:52:46.456Z,16.77
2023-03-13T15:55:13.728Z,16.63
2023-03-13T15:57:49.124Z,16.54
2023-03-13T16:00:21.636Z,16.54
2023-03-13T16:02:48.789Z,16.50
2023-03-13T16:05:16.034Z,16.45
2023-03-13T16:07:45.301Z,16.42
2023-03-13T16:10:25.535Z,16.41
2023-03-13T16:12:53.157Z,16.40
2023-03-13T16:15:20.010Z,16.36
2023-03-13T16:17:46.614Z,16.37
2023-03-13T16:20:17.295Z,16.43
2023-03-13T16:22:44.441Z,16.45
2023-03-13T16:25:11.352Z,16.48
2023-03-13T16:27:38.011Z,16.41
2023-03-13T16:30:13.320Z,16.32
2023-03-13T16:32:39.871Z,16.19
2023-03-13T16:35:06.543Z,16.07
2023-03-13T16:37:32.975Z,15.96
2023-03-13T16:39:59.414Z,15.88
2023-03-13T16:42:26.078Z,15.82
2023-03-13T16:44:52.750Z,15.75
2023-03-13T16:47:24.202Z,15.70
2023-03-13T16:49:50.650Z,15.60
2023-03-13T16:52:17.990Z,15.52
2023-03-13T16:54:45.336Z,15.46
2023-03-13T16:57:13.811Z,15.40
2023-03-13T16:59:40.427Z,15.36
2023-03-13T17:02:18.164Z,15.35
2023-03-13T17:04:45.966Z,15.31
2023-03-13T17:07:24.911Z,15.27
2023-03-13T17:09:52.235Z,15.19
2023-03-13T17:12:19.352Z,15.13
2023-03-13T17:14:46.548Z,15.10
2023-03-13T17:17:16.955Z,15.05
2023-03-13T17:19:44.096Z,14.98
2023-03-13T17:22:15.960Z,14.93
2023-03-13T17:24:43.338Z,14.86
2023-03-13T17:27:13.114Z,14.79
2023-03-13T17:29:39.673Z,14.67
2023-03-13T17:32:06.358Z,14.57
2023-03-13T17:34:32.865Z,14.47
2023-03-13T17:37:04.728Z,14.38
2023-03-13T17:39:31.378Z,14.32
2023-03-13T17:42:00.208Z,14.24
2023-03-13T17:44:26.729Z,14.17
2023-03-13T17:46:53.339Z,14.12
2023-03-13T17:49:20.597Z,14.05
2023-03-13T17:51:49.824Z,14.03
2023-03-13T17:54:16.536Z,13.96
2023-03-13T17:56:43.803Z,13.92
2023-03-13T17:59:14.894Z,13.90
2023-03-13T18:01:42.173Z,13.86
2023-03-13T18:04:09.722Z,13.83
2023-03-13T18:06:39.171Z,13.82
2023-03-13T18:09:08.770Z,13.77
2023-03-13T18:11:38.714Z,13.71
2023-03-13T18:14:06.296Z,13.67
2023-03-13T18:16:38.210Z,13.62
2023-03-13T18:19:06.536Z,13.57
2023-03-13T18:21:34.097Z,13.52
2023-03-13T18:24:00.615Z,13.50
2023-03-13T18:26:32.371Z,13.50
2023-03-13T18:29:00.830Z,13.48
2023-03-13T18:31:32.513Z,13.48
2023-03-13T18:33:59.847Z,13.50
2023-03-13T18:36:27.695Z,13.50
2023-03-13T18:38:54.915Z,13.48
2023-03-13T18:41:22.030Z,13.50
2023-03-13T18:43:49.042Z,13.50
2023-03-13T18:46:24.069Z,13.46
2023-03-13T18:48:50.930Z,13.41
2023-03-13T18:51:18.936Z,13.39
2023-03-13T18:53:46.671Z,13.35
2023-03-13T18:56:22.098Z,13.30
2023-03-13T18:58:50.696Z,13.26
2023-03-13T19:01:20.761Z,13.24
2023-03-13T19:03:47.645Z,13.21
2023-03-13T19:06:27.775Z,13.14
2023-03-13T19:08:57.572Z,13.09
2023-03-13T19:11:30.267Z,13.05
2023-03-13T19:13:57.518Z,13.06
2023-03-13T19:16:30.324Z,13.04
2023-03-13T19:18:58.235Z,13.03
2023-03-13T19:21:26.863Z,12.98
2023-03-13T19:23:54.376Z,12.94
2023-03-13T19:26:29.706Z,12.89
2023-03-13T19:28:56.777Z,12.87
2023-03-13T19:31:23.450Z,12.86
2023-03-13T19:33:50.596Z,12.83
2023-03-13T19:36:19.166Z,12.76
2023-03-13T19:38:45.771Z,12.74
2023-03-13T19:41:13.551Z,12.69
2023-03-13T19:43:40.719Z,12.67
2023-03-13T19:46:28.402Z,12.62
2023-03-13T19:48:57.216Z,12.61
2023-03-13T19:51:24.615Z,12.58
2023-03-13T19:53:51.146Z,12.57
2023-03-13T19:56:20.186Z,12.58
2023-03-13T19:58:49.365Z,12.58
2023-03-13T20:01:17.902Z,12.61
2023-03-13T20:03:45.869Z,12.60
2023-03-13T20:06:23.942Z,12.59
2023-03-13T20:08:55.244Z,12.62
2023-03-13T20:11:22.510Z,12.63
2023-03-13T20:13:49.205Z,12.65
2023-03-13T20:16:16.149Z,12.66
2023-03-13T20:18:48.580Z,12.66
2023-03-13T20:21:16.502Z,12.67
2023-03-13T20:23:44.991Z,12.68
2023-03-13T20:26:13.377Z,12.67
2023-03-13T20:28:42.764Z,12.69
2023-03-13T20:31:09.669Z,12.70
2023-03-13T20:33:36.966Z,12.68
2023-03-13T20:36:07.257Z,12.69
2023-03-13T20:38:34.841Z,12.67
2023-03-13T20:41:02.004Z,12.67
2023-03-13T20:43:29.244Z,12.66
2023-03-13T20:45:55.824Z,12.64
2023-03-13T20:48:22.958Z,12.60
2023-03-13T20:50:52.344Z,12.58
2023-03-13T20:53:20.101Z,12.56
2023-03-13T20:55:46.916Z,12.54
2023-03-13T20:58:13.352Z,12.55
2023-03-13T21:00:40.678Z,12.53
2023-03-13T21:03:07.210Z,12.49
2023-03-13T21:05:38.190Z,12.47
2023-03-13T21:08:04.718Z,12.46
2023-03-13T21:10:31.251Z,12.43
2023-03-13T21:12:57.772Z,12.42
2023-03-13T21:15:24.246Z,12.43
2023-03-13T21:17:50.777Z,12.43
2023-03-13T21:20:17.258Z,12.41
2023-03-13T21:22:44.005Z,12.42
2023-03-13T21:25:11.593Z,12.43
2023-03-13T21:27:38.961Z,12.43
2023-03-13T21:30:07.739Z,12.41
2023-03-13T21:32:38.890Z,12.36
2023-03-13T21:35:06.961Z,12.32
2023-03-13T21:37:33.813Z,12.30
2023-03-13T21:40:00.401Z,12.26
2023-03-13T21:42:27.096Z,12.23
2023-03-13T21:44:53.928Z,12.22
2023-03-13T21:47:26.987Z,12.18
2023-03-13T21:49:54.707Z,12.15
2023-03-13T21:52:22.389Z,12.09
2023-03-13T21:54:49.486Z,12.05
2023-03-13T21:57:16.230Z,12.03
2023-03-13T21:59:42.990Z,11.99
2023-03-13T22:02:13.470Z,11.94
2023-03-13T22:04:40.525Z,11.91
2023-03-13T22:07:06.988Z,11.86
2023-03-13T22:09:33.695Z,11.81
2023-03-13T22:12:00.293Z,11.75
2023-03-13T22:14:27.992Z,11.70
2023-03-13T22:16:54.754Z,11.66
2023-03-13T22:19:21.515Z,11.61
2023-03-13T22:21:47.940Z,11.55
2023-03-13T22:24:14.437Z,11.49
2023-03-13T22:26:41.076Z,11.46
2023-03-13T22:29:07.614Z,11.44
2023-03-13T22:31:34.124Z,11.39
2023-03-13T22:34:00.669Z,11.34
2023-03-13T22:36:27.121Z,11.29
2023-03-13T22:38:53.599Z,11.28
2023-03-13T22:41:20.166Z,11.26
2023-03-13T22:43:46.857Z,11.24
2023-03-13T22:46:13.977Z,11.22
2023-03-13T22:48:40.871Z,11.20
2023-03-13T22:51:12.890Z,11.20
2023-03-13T22:53:41.619Z,11.20
2023-03-13T22:56:12.816Z,11.19
2023-03-13T22:58:40.627Z,11.17
2023-03-13T23:01:08.957Z,11.14
2023-03-13T23:03:36.128Z,11.10
2023-03-13T23:06:14.666Z,11.09
2023-03-13T23:08:43.524Z,11.06
2023-03-13T23:11:10.742Z,11.08
2023-03-13T23:13:37.237Z,11.06
2023-03-13T23:16:11.219Z,11.06
2023-03-13T23:18:38.327Z,11.05
2023-03-13T23:21:06.834Z,11.04
2023-03-13T23:23:33.292Z,11.02
2023-03-13T23:26:00.965Z,11.03
2023-03-13T23:28:27.989Z,11.05
2023-03-13T23:30:54.810Z,11.06
2023-03-13T23:33:21.428Z,11.08
2023-03-13T23:35:47.981Z,11.07
2023-03-13T23:38:18.220Z,11.05
2023-03-13T23:40:44.886Z,11.03
2023-03-13T23:43:11.487Z,11.01
2023-03-13T23:45:37.931Z,11.01
2023-03-13T23:48:04.775Z,11.01
2023-03-13T23:50:31.337Z,11.02
2023-03-13T23:52:57.810Z,11.01
2023-03-13T23:55:24.265Z,11.01
2023-03-13T23:57:50.732Z,11.01
